sensor_id;sensor_type;location;lat;lon;timestamp;pressure;altitude;pressure_sealevel;temperature
24714;BMP280;12820;51.580;5.010;2024-01-30T00:02:32;102614.50;;;10.03
24714;BMP280;12820;51.580;5.010;2024-01-30T00:07:34;102618.66;;;9.99
24714;BMP280;12820;51.580;5.010;2024-01-30T00:12:36;102608.53;;;9.96
24714;BMP280;12820;51.580;5.010;2024-01-30T00:17:38;102604.28;;;9.93
24714;BMP280;12820;51.580;5.010;2024-01-30T00:22:41;102593.38;;;9.91
24714;BMP280;12820;51.580;5.010;2024-01-30T00:27:43;102592.50;;;9.89
24714;BMP280;12820;51.580;5.010;2024-01-30T00:32:45;102579.06;;;9.87
24714;BMP280;12820;51.580;5.010;2024-01-30T00:37:48;102575.72;;;9.88
24714;BMP280;12820;51.580;5.010;2024-01-30T00:42:50;102578.25;;;9.86
24714;BMP280;12820;51.580;5.010;2024-01-30T00:47:53;102581.56;;;9.87
24714;BMP280;12820;51.580;5.010;2024-01-30T00:52:55;102586.63;;;9.88
24714;BMP280;12820;51.580;5.010;2024-01-30T00:57:57;102571.53;;;9.87
24714;BMP280;12820;51.580;5.010;2024-01-30T01:02:59;102578.31;;;9.91
24714;BMP280;12820;51.580;5.010;2024-01-30T01:08:02;102573.28;;;9.91
24714;BMP280;12820;51.580;5.010;2024-01-30T01:13:04;102576.66;;;9.93
24714;BMP280;12820;51.580;5.010;2024-01-30T01:18:06;102578.31;;;9.91
24714;BMP280;12820;51.580;5.010;2024-01-30T01:23:08;102569.97;;;9.93
24714;BMP280;12820;51.580;5.010;2024-01-30T01:28:11;102567.47;;;9.94
24714;BMP280;12820;51.580;5.010;2024-01-30T01:33:13;102564.16;;;9.95
24714;BMP280;12820;51.580;5.010;2024-01-30T01:38:16;102564.16;;;9.97
24714;BMP280;12820;51.580;5.010;2024-01-30T01:43:18;102551.63;;;9.98
24714;BMP280;12820;51.580;5.010;2024-01-30T01:48:21;102559.19;;;10.00
24714;BMP280;12820;51.580;5.010;2024-01-30T01:53:23;102558.34;;;9.99
24714;BMP280;12820;51.580;5.010;2024-01-30T01:58:27;102558.34;;;9.99
24714;BMP280;12820;51.580;5.010;2024-01-30T02:03:30;102554.09;;;9.97
24714;BMP280;12820;51.580;5.010;2024-01-30T02:08:33;102552.41;;;9.94
24714;BMP280;12820;51.580;5.010;2024-01-30T02:13:36;102552.41;;;9.94
24714;BMP280;12820;51.580;5.010;2024-01-30T02:18:38;102552.38;;;9.93
24714;BMP280;12820;51.580;5.010;2024-01-30T02:23:46;102560.72;;;9.92
24714;BMP280;12820;51.580;5.010;2024-01-30T02:28:49;102543.13;;;9.89
24714;BMP280;12820;51.580;5.010;2024-01-30T02:33:51;102531.38;;;9.88
24714;BMP280;12820;51.580;5.010;2024-01-30T02:38:53;102533.03;;;9.88
24714;BMP280;12820;51.580;5.010;2024-01-30T02:43:56;102531.34;;;9.87
24714;BMP280;12820;51.580;5.010;2024-01-30T02:48:58;102530.53;;;9.86
24714;BMP280;12820;51.580;5.010;2024-01-30T02:54:01;102513.75;;;9.87
24714;BMP280;12820;51.580;5.010;2024-01-30T02:59:03;102522.13;;;9.87
24714;BMP280;12820;51.580;5.010;2024-01-30T03:04:05;102523.00;;;9.88
24714;BMP280;12820;51.580;5.010;2024-01-30T03:09:07;102524.72;;;9.90
24714;BMP280;12820;51.580;5.010;2024-01-30T03:14:11;102527.22;;;9.92
24714;BMP280;12820;51.580;5.010;2024-01-30T03:19:13;102531.44;;;9.93
24714;BMP280;12820;51.580;5.010;2024-01-30T03:24:15;102530.63;;;9.94
24714;BMP280;12820;51.580;5.010;2024-01-30T03:29:17;102538.22;;;9.98
24714;BMP280;12820;51.580;5.010;2024-01-30T03:34:20;102530.69;;;9.98
24714;BMP280;12820;51.580;5.010;2024-01-30T03:39:23;102534.09;;;10.00
24714;BMP280;12820;51.580;5.010;2024-01-30T03:44:25;102534.97;;;10.03
24714;BMP280;12820;51.580;5.010;2024-01-30T03:49:27;102524.91;;;10.03
24714;BMP280;12820;51.580;5.010;2024-01-30T03:54:29;102523.28;;;10.05
24714;BMP280;12820;51.580;5.010;2024-01-30T03:59:31;102511.56;;;10.07
24714;BMP280;12820;51.580;5.010;2024-01-30T04:04:33;102496.47;;;10.07
24714;BMP280;12820;51.580;5.010;2024-01-30T04:09:38;102499.06;;;10.12
24714;BMP280;12820;51.580;5.010;2024-01-30T04:14:40;102499.94;;;10.13
24714;BMP280;12820;51.580;5.010;2024-01-30T04:19:43;102506.66;;;10.16
24714;BMP280;12820;51.580;5.010;2024-01-30T04:24:45;102492.47;;;10.18
24714;BMP280;12820;51.580;5.010;2024-01-30T04:29:47;102501.69;;;10.19
24714;BMP280;12820;51.580;5.010;2024-01-30T04:34:49;102499.19;;;10.20
24714;BMP280;12820;51.580;5.010;2024-01-30T04:39:52;102486.66;;;10.22
24714;BMP280;12820;51.580;5.010;2024-01-30T04:44:54;102505.13;;;10.24
24714;BMP280;12820;51.580;5.010;2024-01-30T04:49:56;102501.75;;;10.25
24714;BMP280;12820;51.580;5.010;2024-01-30T04:54:59;102503.50;;;10.30
24714;BMP280;12820;51.580;5.010;2024-01-30T05:00:01;102492.56;;;10.27
24714;BMP280;12820;51.580;5.010;2024-01-30T05:05:04;102490.09;;;10.28
24714;BMP280;12820;51.580;5.010;2024-01-30T05:10:07;102491.75;;;10.28
24714;BMP280;12820;51.580;5.010;2024-01-30T05:15:10;102487.59;;;10.31
24714;BMP280;12820;51.580;5.010;2024-01-30T05:20:12;102487.63;;;10.32
24714;BMP280;12820;51.580;5.010;2024-01-30T05:25:15;102480.94;;;10.34
24714;BMP280;12820;51.580;5.010;2024-01-30T05:30:17;102496.91;;;10.39
24714;BMP280;12820;51.580;5.010;2024-01-30T05:35:19;102480.16;;;10.40
24714;BMP280;12820;51.580;5.010;2024-01-30T05:40:23;102469.31;;;10.42
24714;BMP280;12820;51.580;5.010;2024-01-30T05:45:25;102465.13;;;10.44
24714;BMP280;12820;51.580;5.010;2024-01-30T05:50:27;102483.63;;;10.48
24714;BMP280;12820;51.580;5.010;2024-01-30T05:55:29;102495.44;;;10.53
24714;BMP280;12820;51.580;5.010;2024-01-30T06:00:32;102494.59;;;10.52
24714;BMP280;12820;51.580;5.010;2024-01-30T06:05:34;102495.44;;;10.54
24714;BMP280;12820;51.580;5.010;2024-01-30T06:10:36;102498.81;;;10.58
24714;BMP280;12820;51.580;5.010;2024-01-30T06:15:38;102497.16;;;10.57
24714;BMP280;12820;51.580;5.010;2024-01-30T06:20:41;102502.25;;;10.63
24714;BMP280;12820;51.580;5.010;2024-01-30T06:25:43;102501.41;;;10.64
24714;BMP280;12820;51.580;5.010;2024-01-30T06:30:45;102510.66;;;10.65
24714;BMP280;12820;51.580;5.010;2024-01-30T06:35:48;102529.97;;;10.67
24714;BMP280;12820;51.580;5.010;2024-01-30T06:40:50;102524.13;;;10.69
24714;BMP280;12820;51.580;5.010;2024-01-30T06:45:52;102527.47;;;10.67
24714;BMP280;12820;51.580;5.010;2024-01-30T06:50:54;102544.28;;;10.71
24714;BMP280;12820;51.580;5.010;2024-01-30T06:55:59;102544.28;;;10.72
24714;BMP280;12820;51.580;5.010;2024-01-30T07:01:01;102551.81;;;10.72
24714;BMP280;12820;51.580;5.010;2024-01-30T07:06:04;102553.53;;;10.75
24714;BMP280;12820;51.580;5.010;2024-01-30T07:11:06;102568.66;;;10.78
24714;BMP280;12820;51.580;5.010;2024-01-30T07:16:09;102560.28;;;10.79
24714;BMP280;12820;51.580;5.010;2024-01-30T07:21:12;102567.88;;;10.82
24714;BMP280;12820;51.580;5.010;2024-01-30T07:26:14;102572.09;;;10.84
24714;BMP280;12820;51.580;5.010;2024-01-30T07:31:16;102579.66;;;10.87
24714;BMP280;12820;51.580;5.010;2024-01-30T07:36:19;102578.03;;;10.89
24714;BMP280;12820;51.580;5.010;2024-01-30T07:41:21;102584.75;;;10.91
24714;BMP280;12820;51.580;5.010;2024-01-30T07:46:23;102591.53;;;10.97
24714;BMP280;12820;51.580;5.010;2024-01-30T07:51:25;102594.94;;;11.01
24714;BMP280;12820;51.580;5.010;2024-01-30T07:56:29;102601.75;;;11.08
24714;BMP280;12820;51.580;5.010;2024-01-30T08:01:31;102598.47;;;11.14
24714;BMP280;12820;51.580;5.010;2024-01-30T08:06:33;102592.66;;;11.19
24714;BMP280;12820;51.580;5.010;2024-01-30T08:11:36;102603.69;;;11.28
24714;BMP280;12820;51.580;5.010;2024-01-30T08:16:38;102597.88;;;11.35
24714;BMP280;12820;51.580;5.010;2024-01-30T08:21:40;102590.44;;;11.42
24714;BMP280;12820;51.580;5.010;2024-01-30T08:26:42;102599.75;;;11.52
24714;BMP280;12820;51.580;5.010;2024-01-30T08:31:45;102590.56;;;11.58
24714;BMP280;12820;51.580;5.010;2024-01-30T08:36:48;102595.69;;;11.66
24714;BMP280;12820;51.580;5.010;2024-01-30T08:41:51;102589.84;;;11.72
24714;BMP280;12820;51.580;5.010;2024-01-30T08:46:53;102594.16;;;11.81
24714;BMP280;12820;51.580;5.010;2024-01-30T08:51:59;102600.13;;;11.94
24714;BMP280;12820;51.580;5.010;2024-01-30T08:57:01;102608.63;;;12.04
24714;BMP280;12820;51.580;5.010;2024-01-30T09:02:04;102611.19;;;12.12
24714;BMP280;12820;51.580;5.010;2024-01-30T09:07:13;102621.34;;;12.18
24714;BMP280;12820;51.580;5.010;2024-01-30T09:12:16;102615.47;;;12.25
24714;BMP280;12820;51.580;5.010;2024-01-30T09:17:18;102623.94;;;12.30
24714;BMP280;12820;51.580;5.010;2024-01-30T09:22:21;102634.03;;;12.34
24714;BMP280;12820;51.580;5.010;2024-01-30T09:27:23;102633.22;;;12.35
24714;BMP280;12820;51.580;5.010;2024-01-30T09:32:25;102625.66;;;12.35
24714;BMP280;12820;51.580;5.010;2024-01-30T09:37:28;102638.28;;;12.40
24714;BMP280;12820;51.580;5.010;2024-01-30T09:42:35;102640.81;;;12.40
24714;BMP280;12820;51.580;5.010;2024-01-30T09:47:42;102641.69;;;12.42
24714;BMP280;12820;51.580;5.010;2024-01-30T09:52:46;102645.06;;;12.46
24714;BMP280;12820;51.580;5.010;2024-01-30T09:57:48;102640.03;;;12.52
24714;BMP280;12820;51.580;5.010;2024-01-30T10:02:50;102655.31;;;12.64
24714;BMP280;12820;51.580;5.010;2024-01-30T10:07:53;102645.22;;;12.71
24714;BMP280;12820;51.580;5.010;2024-01-30T10:12:57;102659.59;;;12.79
24714;BMP280;12820;51.580;5.010;2024-01-30T10:18:01;102659.66;;;12.93
24714;BMP280;12820;51.580;5.010;2024-01-30T10:23:03;102663.94;;;13.10
24714;BMP280;12820;51.580;5.010;2024-01-30T10:28:05;102655.59;;;13.21
24714;BMP280;12820;51.580;5.010;2024-01-30T10:33:08;102653.97;;;13.36
24714;BMP280;12820;51.580;5.010;2024-01-30T10:38:36;102672.56;;;13.64
24714;BMP280;12820;51.580;5.010;2024-01-30T10:43:41;102669.28;;;13.91
24714;BMP280;12820;51.580;5.010;2024-01-30T10:48:46;102666.75;;;14.16
24714;BMP280;12820;51.580;5.010;2024-01-30T10:53:52;102668.44;;;14.39
24714;BMP280;12820;51.580;5.010;2024-01-30T10:58:55;102676.03;;;14.36
24714;BMP280;12820;51.580;5.010;2024-01-30T11:03:57;102669.28;;;14.26
24714;BMP280;12820;51.580;5.010;2024-01-30T11:09:04;102675.16;;;14.18
24714;BMP280;12820;51.580;5.010;2024-01-30T11:14:10;102679.41;;;14.18
24714;BMP280;12820;51.580;5.010;2024-01-30T11:19:22;102677.69;;;14.09
24714;BMP280;12820;51.580;5.010;2024-01-30T11:24:25;102672.66;;;14.02
24714;BMP280;12820;51.580;5.010;2024-01-30T11:29:28;102681.94;;;14.12
24714;BMP280;12820;51.580;5.010;2024-01-30T11:34:32;102686.16;;;14.07
24714;BMP280;12820;51.580;5.010;2024-01-30T11:39:36;102692.06;;;14.07
24714;BMP280;12820;51.580;5.010;2024-01-30T11:44:38;102688.69;;;14.07
24714;BMP280;12820;51.580;5.010;2024-01-30T11:49:40;102701.31;;;14.11
24714;BMP280;12820;51.580;5.010;2024-01-30T11:54:43;102691.19;;;14.10
24714;BMP280;12820;51.580;5.010;2024-01-30T11:59:45;102697.94;;;14.15
24714;BMP280;12820;51.580;5.010;2024-01-30T12:04:47;102699.63;;;14.15
24714;BMP280;12820;51.580;5.010;2024-01-30T12:09:53;102706.38;;;14.39
24714;BMP280;12820;51.580;5.010;2024-01-30T12:14:56;102706.38;;;14.54
24714;BMP280;12820;51.580;5.010;2024-01-30T12:25:12;102730.00;;;14.56
24714;BMP280;12820;51.580;5.010;2024-01-30T12:30:15;102735.91;;;14.46
24714;BMP280;12820;51.580;5.010;2024-01-30T12:35:19;102740.09;;;14.47
24714;BMP280;12820;51.580;5.010;2024-01-30T12:40:22;102739.28;;;14.74
24714;BMP280;12820;51.580;5.010;2024-01-30T12:45:24;102751.91;;;14.94
24714;BMP280;12820;51.580;5.010;2024-01-30T12:50:27;102744.31;;;14.75
24714;BMP280;12820;51.580;5.010;2024-01-30T12:55:29;102751.94;;;14.59
24714;BMP280;12820;51.580;5.010;2024-01-30T13:00:32;102755.31;;;14.44
24714;BMP280;12820;51.580;5.010;2024-01-30T13:05:36;102764.59;;;14.27
24714;BMP280;12820;51.580;5.010;2024-01-30T13:10:39;102767.91;;;14.12
24714;BMP280;12820;51.580;5.010;2024-01-30T13:15:41;102766.19;;;13.96
24714;BMP280;12820;51.580;5.010;2024-01-30T13:20:43;102772.06;;;13.84
24714;BMP280;12820;51.580;5.010;2024-01-30T13:25:45;102783.78;;;13.73
24714;BMP280;12820;51.580;5.010;2024-01-30T13:30:47;102778.69;;;13.67
24714;BMP280;12820;51.580;5.010;2024-01-30T13:35:50;102787.13;;;13.60
24714;BMP280;12820;51.580;5.010;2024-01-30T13:40:52;102785.41;;;13.56
24714;BMP280;12820;51.580;5.010;2024-01-30T13:45:55;102788.75;;;13.52
24714;BMP280;12820;51.580;5.010;2024-01-30T13:50:57;102807.25;;;13.46
24714;BMP280;12820;51.580;5.010;2024-01-30T13:56:00;102808.03;;;13.34
24714;BMP280;12820;51.580;5.010;2024-01-30T14:01:03;102802.06;;;13.22
24714;BMP280;12820;51.580;5.010;2024-01-30T14:06:05;102823.88;;;13.12
24714;BMP280;12820;51.580;5.010;2024-01-30T14:11:09;102841.44;;;12.97
24714;BMP280;12820;51.580;5.010;2024-01-30T14:16:11;102842.19;;;12.84
24714;BMP280;12820;51.580;5.010;2024-01-30T14:21:14;102840.38;;;12.69
24714;BMP280;12820;51.580;5.010;2024-01-30T14:26:16;102841.09;;;12.59
24714;BMP280;12820;51.580;5.010;2024-01-30T14:31:18;102856.16;;;12.53
24714;BMP280;12820;51.580;5.010;2024-01-30T14:36:21;102853.53;;;12.43
24714;BMP280;12820;51.580;5.010;2024-01-30T14:41:24;102866.94;;;12.38
24714;BMP280;12820;51.580;5.010;2024-01-30T14:46:26;102885.38;;;12.34
24714;BMP280;12820;51.580;5.010;2024-01-30T14:51:29;102886.19;;;12.31
24714;BMP280;12820;51.580;5.010;2024-01-30T14:56:31;102876.97;;;12.32
24714;BMP280;12820;51.580;5.010;2024-01-30T15:01:34;102894.59;;;12.30
24714;BMP280;12820;51.580;5.010;2024-01-30T15:06:37;102904.66;;;12.27
24714;BMP280;12820;51.580;5.010;2024-01-30T15:11:49;102913.00;;;12.22
24714;BMP280;12820;51.580;5.010;2024-01-30T15:16:52;102927.19;;;12.16
24714;BMP280;12820;51.580;5.010;2024-01-30T15:21:54;102930.44;;;12.05
24714;BMP280;12820;51.580;5.010;2024-01-30T15:26:56;102929.47;;;11.97
24714;BMP280;12820;51.580;5.010;2024-01-30T15:31:58;102941.13;;;11.89
24714;BMP280;12820;51.580;5.010;2024-01-30T15:37:01;102944.34;;;11.79
24714;BMP280;12820;51.580;5.010;2024-01-30T15:42:03;102935.00;;;11.72
24714;BMP280;12820;51.580;5.010;2024-01-30T15:47:06;102941.63;;;11.65
24714;BMP280;12820;51.580;5.010;2024-01-30T15:52:08;102954.94;;;11.58
24714;BMP280;12820;51.580;5.010;2024-01-30T15:57:16;102974.13;;;11.50
24714;BMP280;12820;51.580;5.010;2024-01-30T16:08:03;102991.47;;;11.34
24714;BMP280;12820;51.580;5.010;2024-01-30T16:13:06;102991.34;;;11.27
24714;BMP280;12820;51.580;5.010;2024-01-30T16:18:08;102995.38;;;11.18
24714;BMP280;12820;51.580;5.010;2024-01-30T16:23:10;103014.53;;;11.11
24714;BMP280;12820;51.580;5.010;2024-01-30T16:28:13;103016.13;;;11.05
24714;BMP280;12820;51.580;5.010;2024-01-30T16:33:15;103015.97;;;10.98
24714;BMP280;12820;51.580;5.010;2024-01-30T16:38:20;103026.00;;;10.95
24714;BMP280;12820;51.580;5.010;2024-01-30T16:43:22;103026.66;;;10.86
24714;BMP280;12820;51.580;5.010;2024-01-30T16:48:24;103034.97;;;10.82
24714;BMP280;12820;51.580;5.010;2024-01-30T16:53:26;103043.28;;;10.79
24714;BMP280;12820;51.580;5.010;2024-01-30T16:58:29;103044.00;;;10.73
24714;BMP280;12820;51.580;5.010;2024-01-30T17:03:31;103045.66;;;10.71
24714;BMP280;12820;51.580;5.010;2024-01-30T17:08:33;103047.22;;;10.66
24714;BMP280;12820;51.580;5.010;2024-01-30T17:13:36;103060.53;;;10.63
24714;BMP280;12820;51.580;5.010;2024-01-30T17:18:38;103064.75;;;10.62
24714;BMP280;12820;51.580;5.010;2024-01-30T17:23:40;103084.75;;;10.58
24714;BMP280;12820;51.580;5.010;2024-01-30T17:28:43;103100.69;;;10.57
24714;BMP280;12820;51.580;5.010;2024-01-30T17:33:45;103101.44;;;10.54
24714;BMP280;12820;51.580;5.010;2024-01-30T17:38:48;103109.78;;;10.52
24714;BMP280;12820;51.580;5.010;2024-01-30T17:43:50;103108.88;;;10.50
24714;BMP280;12820;51.580;5.010;2024-01-30T17:48:53;103127.31;;;10.49
24714;BMP280;12820;51.580;5.010;2024-01-30T17:53:55;103129.75;;;10.46
24714;BMP280;12820;51.580;5.010;2024-01-30T17:58:57;103141.44;;;10.44
24714;BMP280;12820;51.580;5.010;2024-01-30T18:03:59;103150.66;;;10.44
24714;BMP280;12820;51.580;5.010;2024-01-30T18:09:01;103159.03;;;10.44
24714;BMP280;12820;51.580;5.010;2024-01-30T18:14:04;103161.44;;;10.40
24714;BMP280;12820;51.580;5.010;2024-01-30T18:19:06;103171.47;;;10.37
24714;BMP280;12820;51.580;5.010;2024-01-30T18:24:08;103166.38;;;10.34
24714;BMP280;12820;51.580;5.010;2024-01-30T18:29:10;103162.09;;;10.31
24714;BMP280;12820;51.580;5.010;2024-01-30T18:34:12;103172.09;;;10.29
24714;BMP280;12820;51.580;5.010;2024-01-30T18:39:16;103186.34;;;10.28
24714;BMP280;12820;51.580;5.010;2024-01-30T18:44:18;103193.81;;;10.27
24714;BMP280;12820;51.580;5.010;2024-01-30T18:49:20;103199.66;;;10.24
24714;BMP280;12820;51.580;5.010;2024-01-30T18:54:22;103210.50;;;10.23
24714;BMP280;12820;51.580;5.010;2024-01-30T18:59:27;103204.59;;;10.21
24714;BMP280;12820;51.580;5.010;2024-01-30T19:04:29;103217.09;;;10.20
24714;BMP280;12820;51.580;5.010;2024-01-30T19:09:32;103217.09;;;10.20
24714;BMP280;12820;51.580;5.010;2024-01-30T19:14:34;103227.16;;;10.20
24714;BMP280;12820;51.580;5.010;2024-01-30T19:19:38;103239.72;;;10.18
24714;BMP280;12820;51.580;5.010;2024-01-30T19:24:42;103231.34;;;10.19
24714;BMP280;12820;51.580;5.010;2024-01-30T19:29:44;103241.41;;;10.19
24714;BMP280;12820;51.580;5.010;2024-01-30T19:35:11;103251.47;;;10.19
24714;BMP280;12820;51.580;5.010;2024-01-30T19:40:17;103252.28;;;10.20
24714;BMP280;12820;51.580;5.010;2024-01-30T19:45:20;103260.69;;;10.20
24714;BMP280;12820;51.580;5.010;2024-01-30T19:50:28;103274.91;;;10.20
24714;BMP280;12820;51.580;5.010;2024-01-30T19:55:34;103264.03;;;10.19
24714;BMP280;12820;51.580;5.010;2024-01-30T20:00:37;103271.56;;;10.19
24714;BMP280;12820;51.580;5.010;2024-01-30T20:05:39;103277.44;;;10.20
24714;BMP280;12820;51.580;5.010;2024-01-30T20:10:42;103272.44;;;10.21
24714;BMP280;12820;51.580;5.010;2024-01-30T20:15:45;103270.72;;;10.19
24714;BMP280;12820;51.580;5.010;2024-01-30T20:20:48;103287.47;;;10.20
24714;BMP280;12820;51.580;5.010;2024-01-30T20:25:50;103291.69;;;10.19
24714;BMP280;12820;51.580;5.010;2024-01-30T20:30:52;103292.50;;;10.20
24714;BMP280;12820;51.580;5.010;2024-01-30T20:35:54;103301.75;;;10.19
24714;BMP280;12820;51.580;5.010;2024-01-30T20:40:57;103297.47;;;10.17
24714;BMP280;12820;51.580;5.010;2024-01-30T20:46:00;103307.53;;;10.17
24714;BMP280;12820;51.580;5.010;2024-01-30T20:51:02;103319.22;;;10.16
24714;BMP280;12820;51.580;5.010;2024-01-30T20:56:05;103325.91;;;10.16
24714;BMP280;12820;51.580;5.010;2024-01-30T21:01:09;103339.31;;;10.15
24714;BMP280;12820;51.580;5.010;2024-01-30T21:06:12;103334.31;;;10.15
24714;BMP280;12820;51.580;5.010;2024-01-30T21:11:15;103335.09;;;10.14
24714;BMP280;12820;51.580;5.010;2024-01-30T21:16:20;103338.47;;;10.14
24714;BMP280;12820;51.580;5.010;2024-01-30T21:21:22;103350.97;;;10.13
24714;BMP280;12820;51.580;5.010;2024-01-30T21:26:24;103365.22;;;10.12
24714;BMP280;12820;51.580;5.010;2024-01-30T21:31:26;103366.00;;;10.12
24714;BMP280;12820;51.580;5.010;2024-01-30T21:36:28;103364.34;;;10.12
24714;BMP280;12820;51.580;5.010;2024-01-30T21:41:31;103364.34;;;10.12
24714;BMP280;12820;51.580;5.010;2024-01-30T21:46:33;103377.81;;;10.14
24714;BMP280;12820;51.580;5.010;2024-01-30T21:51:35;103380.22;;;10.10
24714;BMP280;12820;51.580;5.010;2024-01-30T21:56:38;103380.16;;;10.08
24714;BMP280;12820;51.580;5.010;2024-01-30T22:01:40;103395.25;;;10.08
24714;BMP280;12820;51.580;5.010;2024-01-30T22:06:43;103391.03;;;10.07
24714;BMP280;12820;51.580;5.010;2024-01-30T22:11:46;103397.72;;;10.07
24714;BMP280;12820;51.580;5.010;2024-01-30T22:16:48;103396.78;;;10.03
24714;BMP280;12820;51.580;5.010;2024-01-30T22:21:51;103406.84;;;10.03
24714;BMP280;12820;51.580;5.010;2024-01-30T22:26:53;103410.09;;;10.01
24714;BMP280;12820;51.580;5.010;2024-01-30T22:31:55;103415.97;;;10.01
24714;BMP280;12820;51.580;5.010;2024-01-30T22:36:57;103415.91;;;9.98
24714;BMP280;12820;51.580;5.010;2024-01-30T22:42:00;103414.19;;;9.97
24714;BMP280;12820;51.580;5.010;2024-01-30T22:47:03;103420.84;;;9.95
24714;BMP280;12820;51.580;5.010;2024-01-30T22:52:05;103419.16;;;9.94
24714;BMP280;12820;51.580;5.010;2024-01-30T22:57:07;103422.47;;;9.94
24714;BMP280;12820;51.580;5.010;2024-01-30T23:02:10;103425.75;;;9.91
24714;BMP280;12820;51.580;5.010;2024-01-30T23:07:12;103431.56;;;9.90
24714;BMP280;12820;51.580;5.010;2024-01-30T23:12:18;103431.53;;;9.89
24714;BMP280;12820;51.580;5.010;2024-01-30T23:17:21;103431.47;;;9.87
24714;BMP280;12820;51.580;5.010;2024-01-30T23:22:23;103433.13;;;9.87
24714;BMP280;12820;51.580;5.010;2024-01-30T23:27:25;103440.66;;;9.87
24714;BMP280;12820;51.580;5.010;2024-01-30T23:32:27;103435.56;;;9.84
24714;BMP280;12820;51.580;5.010;2024-01-30T23:37:40;103431.34;;;9.83
24714;BMP280;12820;51.580;5.010;2024-01-30T23:42:42;103437.16;;;9.82
24714;BMP280;12820;51.580;5.010;2024-01-30T23:47:45;103435.47;;;9.81
24714;BMP280;12820;51.580;5.010;2024-01-30T23:52:47;103447.13;;;9.79
24714;BMP280;12820;51.580;5.010;2024-01-30T23:57:51;103436.97;;;9.76
